Time;durP1;ratioP1;P1;durP2;ratioP2;P2;SDS_P1;SDS_P2;PMS_P1;PMS_P2;Temp;Humidity;BMP_temperature;BMP_pressure;BME280_temperature;BME280_humidity;BME280_pressure;Samples;Min_cycle;Max_cycle;Signal;HPM_P1;HPM_P2
2021/04/04 00:02:18;501119.00;1.67;863.75;0.00;0.00;0.62;;;;;14.20;1.00;;;;;;2254251;61;1577;-89
2021/04/04 00:04:45;558751.00;1.86;963.05;0.00;0.00;0.62;;;;;13.80;1.00;;;;;;2254634;61;1744;-89
2021/04/04 00:07:12;417385.00;1.39;719.69;0.00;0.00;0.62;;;;;13.60;1.00;;;;;;2254666;61;1782;-90
2021/04/04 00:09:38;392067.00;1.31;676.17;0.00;0.00;0.62;;;;;13.40;1.00;;;;;;2254188;61;1134;-89
2021/04/04 00:12:06;450466.00;1.50;776.58;0.00;0.00;0.62;;;;;13.40;1.00;;;;;;2254309;61;1700;-89
2021/04/04 00:14:33;193850.00;0.65;335.34;0.00;0.00;0.62;;;;;13.50;1.00;;;;;;2254297;61;1918;-88
2021/04/04 00:17:00;632670.00;2.11;1090.66;0.00;0.00;0.62;;;;;13.60;1.00;;;;;;2253830;61;1596;-89
2021/04/04 00:19:27;445235.00;1.48;767.59;0.00;0.00;0.62;;;;;13.70;1.00;;;;;;2254053;61;1066;-88
2021/04/04 00:21:54;439563.00;1.47;757.83;0.00;0.00;0.62;;;;;13.60;1.00;;;;;;2253583;61;1606;-88
2021/04/04 00:24:21;451526.00;1.51;778.41;0.00;0.00;0.62;;;;;13.60;1.00;;;;;;2252834;61;1767;-89
2021/04/04 00:26:47;315753.00;1.05;545.00;29592.00;0.10;51.88;;;;;13.40;1.00;;;;;;2254822;61;1608;-89
2021/04/04 00:29:14;451167.00;1.50;777.79;0.00;0.00;0.62;;;;;13.10;1.00;;;;;;2256440;61;1477;-88
2021/04/04 00:31:40;547919.00;1.83;944.37;0.00;0.00;0.62;;;;;13.00;1.00;;;;;;2256415;61;1467;-89
2021/04/04 00:34:07;777969.00;2.59;1342.73;0.00;0.00;0.62;;;;;12.60;1.00;;;;;;2253796;61;1745;-88
2021/04/04 00:36:35;765597.00;2.55;1321.19;44689.00;0.15;78.00;;;;;12.40;1.00;;;;;;2252740;61;1938;-88
2021/04/04 00:39:04;483683.00;1.61;833.74;10119.00;0.03;18.16;;;;;12.20;1.00;;;;;;2252980;61;1614;-88
2021/04/04 00:41:31;348880.00;1.16;601.94;17493.00;0.06;30.93;;;;;12.70;1.00;;;;;;2253072;61;1195;-89
2021/04/04 00:43:57;416335.00;1.39;717.89;0.00;0.00;0.62;;;;;13.30;1.00;;;;;;2252527;61;1693;-88
2021/04/04 00:46:24;475586.00;1.59;819.80;0.00;0.00;0.62;;;;;13.30;1.00;;;;;;2252213;61;1139;-89
2021/04/04 00:48:50;445738.00;1.49;768.45;0.00;0.00;0.62;;;;;13.30;1.00;;;;;;2252527;61;1161;-88
2021/04/04 00:51:17;587351.00;1.96;1012.38;0.00;0.00;0.62;;;;;13.40;1.00;;;;;;2253411;61;1147;-88
2021/04/04 00:53:45;641407.00;2.14;1105.77;0.00;0.00;0.62;;;;;13.80;1.00;;;;;;2252915;61;1754;-89
2021/04/04 00:56:12;604302.00;2.01;1041.65;0.00;0.00;0.62;;;;;13.90;1.00;;;;;;2252619;61;1927;-88
2021/04/04 00:58:39;590820.00;1.97;1018.37;0.00;0.00;0.62;;;;;13.60;1.00;;;;;;2252736;61;1733;-88
2021/04/04 01:01:06;715349.00;2.38;1233.87;113830.00;0.38;197.44;;;;;13.80;1.00;;;;;;2252756;61;1605;-89
2021/04/04 01:03:33;613169.00;2.04;1056.96;0.00;0.00;0.62;;;;;13.60;1.00;;;;;;2252436;61;1383;-89
2021/04/04 01:06:03;395567.00;1.32;682.18;0.00;0.00;0.62;;;;;13.70;1.00;;;;;;2252519;61;1177;-89
2021/04/04 01:08:30;239589.00;0.80;414.04;0.00;0.00;0.62;;;;;13.90;1.00;;;;;;2252395;61;1756;-89
2021/04/04 01:10:58;375650.00;1.25;647.95;0.00;0.00;0.62;;;;;13.00;1.00;;;;;;2252618;61;1610;-88
2021/04/04 01:13:42;554218.00;1.85;955.23;0.00;0.00;0.62;;;;;13.10;1.00;;;;;;2252765;61;1289;-89
2021/04/04 01:16:14;302372.00;1.01;522.00;0.00;0.00;0.62;;;;;13.20;1.00;;;;;;2253173;61;1928;-88
2021/04/04 01:18:48;253742.00;0.85;438.39;17707.00;0.06;31.30;;;;;13.30;1.00;;;;;;2253380;61;1216;-88
2021/04/04 01:21:20;389231.00;1.30;671.29;0.00;0.00;0.62;;;;;13.60;1.00;;;;;;2252980;61;1152;-89
2021/04/04 01:24:10;306036.00;1.02;528.30;0.00;0.00;0.62;;;;;12.90;1.00;;;;;;2252700;61;1426;-88
2021/04/04 01:26:51;271985.00;0.91;469.76;0.00;0.00;0.62;;;;;12.40;1.00;;;;;;2252130;61;1265;-88
2021/04/04 01:29:22;273945.00;0.91;473.13;0.00;0.00;0.62;;;;;11.40;1.00;;;;;;2251895;61;1137;-87
2021/04/04 01:31:51;350075.00;1.17;603.99;61608.00;0.21;107.26;;;;;11.00;1.00;;;;;;2252554;61;1101;-88
2021/04/04 01:34:19;214212.00;0.71;370.38;0.00;0.00;0.62;;;;;10.60;1.00;;;;;;2253185;61;1353;-87
2021/04/04 01:36:51;416864.00;1.39;718.80;0.00;0.00;0.62;;;;;10.10;1.00;;;;;;2253048;61;2022;-88
2021/04/04 01:39:20;232629.00;0.78;402.07;0.00;0.00;0.62;;;;;9.90;1.00;;;;;;2253015;61;1642;-88
2021/04/04 01:41:49;264213.00;0.88;456.39;0.00;0.00;0.62;;;;;9.70;1.00;;;;;;2252408;61;1023;-87
2021/04/04 01:44:19;355847.00;1.19;613.91;0.00;0.00;0.62;;;;;9.20;1.00;;;;;;2252156;61;1609;-87
2021/04/04 01:46:48;248112.00;0.83;428.70;0.00;0.00;0.62;;;;;9.40;1.00;;;;;;2251621;61;1298;-87
2021/04/04 01:49:15;229657.00;0.77;396.96;0.00;0.00;0.62;;;;;9.70;1.00;;;;;;2251603;61;1623;-87
2021/04/04 01:51:44;149849.00;0.50;259.55;0.00;0.00;0.62;;;;;10.20;1.00;;;;;;2253022;61;1719;-88
2021/04/04 01:54:12;191020.00;0.64;330.46;0.00;0.00;0.62;;;;;10.40;1.00;;;;;;2254193;61;1258;-87
2021/04/04 01:56:39;271685.00;0.91;469.24;0.00;0.00;0.62;;;;;9.70;1.00;;;;;;2253298;61;1934;-87
2021/04/04 01:59:07;266315.00;0.89;460.01;7890.00;0.03;14.29;;;;;9.20;1.00;;;;;;2252499;61;1133;-88
2021/04/04 02:01:37;201317.00;0.67;348.19;0.00;0.00;0.62;;;;;9.40;1.00;;;;;;2252663;61;1177;-87
2021/04/04 02:04:06;149995.00;0.50;259.80;0.00;0.00;0.62;;;;;9.60;1.00;;;;;;2252942;61;1727;-87
2021/04/04 02:06:34;307193.00;1.02;530.28;0.00;0.00;0.62;;;;;10.00;1.00;;;;;;2253674;61;1126;-87
2021/04/04 02:09:01;227192.00;0.76;392.72;0.00;0.00;0.62;;;;;9.80;1.00;;;;;;2254943;61;1739;-87
2021/04/04 02:11:32;172652.00;0.58;298.83;0.00;0.00;0.62;;;;;10.10;1.00;;;;;;2255955;61;1597;-87
2021/04/04 02:13:59;276556.00;0.92;477.62;12944.00;0.04;23.05;;;;;10.20;1.00;;;;;;2255650;61;1617;-87
2021/04/04 02:16:29;276437.00;0.92;477.41;16022.00;0.05;28.38;;;;;9.80;1.00;;;;;;2253377;61;1932;-87
2021/04/04 02:18:57;190277.00;0.63;329.19;0.00;0.00;0.62;;;;;10.30;1.00;;;;;;2252853;61;1747;-86
2021/04/04 02:21:27;181100.00;0.60;313.38;0.00;0.00;0.62;;;;;10.90;1.00;;;;;;2253099;61;1150;-87
2021/04/04 02:23:54;148986.00;0.50;258.06;0.00;0.00;0.62;;;;;11.50;1.00;;;;;;2253239;61;1407;-87
2021/04/04 02:26:21;351147.00;1.17;605.83;32946.00;0.11;57.68;;;;;11.90;1.00;;;;;;2253029;61;1581;-87
2021/04/04 02:28:50;241262.00;0.80;416.92;0.00;0.00;0.62;;;;;12.40;1.00;;;;;;2252941;61;1622;-87
2021/04/04 02:31:19;371793.00;1.24;641.32;0.00;0.00;0.62;;;;;12.90;1.00;;;;;;2252997;61;1675;-88
2021/04/04 02:33:51;271027.00;0.90;468.11;0.00;0.00;0.62;;;;;13.30;1.00;;;;;;2255857;61;1442;-87
2021/04/04 02:36:19;213175.00;0.71;368.60;0.00;0.00;0.62;;;;;13.50;1.00;;;;;;2253868;61;1995;-87
2021/04/04 02:38:51;472294.00;1.57;814.14;0.00;0.00;0.62;;;;;13.70;1.00;;;;;;2253878;61;1119;-87
2021/04/04 02:41:18;241152.00;0.80;416.73;0.00;0.00;0.62;;;;;13.40;1.00;;;;;;2253100;61;1180;-88
2021/04/04 02:43:49;288556.00;0.96;498.25;0.00;0.00;0.62;;;;;12.70;1.00;;;;;;2252709;61;1742;-88
2021/04/04 02:46:20;328982.00;1.10;567.74;0.00;0.00;0.62;;;;;12.00;1.00;;;;;;2252569;61;1136;-88
2021/04/04 02:48:57;355792.00;1.19;613.82;0.00;0.00;0.62;;;;;11.30;1.00;;;;;;2252225;61;1436;-87
2021/04/04 02:51:32;255991.00;0.85;442.25;0.00;0.00;0.62;;;;;10.60;1.00;;;;;;2251391;61;1255;-87
2021/04/04 02:54:00;236920.00;0.79;409.45;0.00;0.00;0.62;;;;;9.90;1.00;;;;;;2251777;61;1610;-87
2021/04/04 02:56:29;554885.00;1.85;956.38;36183.00;0.12;63.28;;;;;9.80;1.00;;;;;;2251348;61;2026;-88
2021/04/04 02:59:00;304069.00;1.01;524.91;0.00;0.00;0.62;;;;;9.90;1.00;;;;;;2251503;61;1200;-88
2021/04/04 03:01:29;301957.00;1.01;521.28;0.00;0.00;0.62;;;;;10.60;1.00;;;;;;2252005;61;1220;-88
2021/04/04 03:03:56;219397.00;0.73;379.31;0.00;0.00;0.62;;;;;11.30;1.00;;;;;;2251844;61;1346;-87
2021/04/04 03:06:24;227736.00;0.76;393.65;0.00;0.00;0.62;;;;;11.90;1.00;;;;;;2251686;61;1169;-88
2021/04/04 03:08:53;324231.00;1.08;559.57;0.00;0.00;0.62;;;;;11.70;1.00;;;;;;2251354;61;1607;-88
2021/04/04 03:11:21;430687.00;1.44;742.57;0.00;0.00;0.62;;;;;11.60;1.00;;;;;;2253082;61;1753;-87
2021/04/04 03:13:52;118202520.00;394.01;66898548.00;9587.00;0.03;17.23;;;;;11.10;1.00;;;;;;2252243;61;1285;-87
2021/04/04 03:16:20;424448.00;1.41;731.84;0.00;0.00;0.62;;;;;10.70;1.00;;;;;;2251288;61;1919;-87
2021/04/04 03:18:48;499861.00;1.67;861.58;0.00;0.00;0.62;;;;;10.50;1.00;;;;;;2251113;61;1614;-88
2021/04/04 03:21:15;461437.00;1.54;795.46;0.00;0.00;0.62;;;;;10.40;1.00;;;;;;2250909;61;1620;-88
2021/04/04 03:23:43;396037.00;1.32;682.99;0.00;0.00;0.62;;;;;10.70;1.00;;;;;;2251615;61;1294;-87
2021/04/04 03:26:13;513946.00;1.71;885.84;0.00;0.00;0.62;;;;;11.40;1.00;;;;;;2251523;61;1146;-88
2021/04/04 03:28:42;356416.00;1.19;614.89;0.00;0.00;0.62;;;;;11.70;1.00;;;;;;2251822;61;1467;-88
2021/04/04 03:31:14;325920.00;1.09;562.47;0.00;0.00;0.62;;;;;12.00;1.00;;;;;;2252436;61;1560;-88
2021/04/04 03:33:41;224708.00;0.75;388.44;0.00;0.00;0.62;;;;;12.10;1.00;;;;;;2252607;61;1629;-88
2021/04/04 03:36:12;413457.00;1.38;712.94;28012.00;0.09;49.14;;;;;12.50;1.00;;;;;;2252922;61;2013;-87
2021/04/04 03:38:39;383448.00;1.28;661.35;0.00;0.00;0.62;;;;;12.70;1.00;;;;;;2252216;61;1629;-88
2021/04/04 03:41:09;364796.00;1.22;629.29;0.00;0.00;0.62;;;;;12.80;1.00;;;;;;2251825;61;1763;-87
2021/04/04 03:43:38;476847.00;1.59;821.97;0.00;0.00;0.62;;;;;12.40;1.00;;;;;;2251858;61;1354;-88
2021/04/04 03:46:08;379468.00;1.26;654.51;0.00;0.00;0.62;;;;;12.40;1.00;;;;;;2252077;61;1054;-88
2021/04/04 03:48:36;286373.00;0.95;494.49;0.00;0.00;0.62;;;;;12.60;1.00;;;;;;2251809;61;1101;-88
2021/04/04 03:51:07;215375.00;0.72;372.39;0.00;0.00;0.62;;;;;12.60;1.00;;;;;;2252118;61;1564;-88
2021/04/04 03:53:38;339818.00;1.13;586.36;0.00;0.00;0.62;;;;;12.70;1.00;;;;;;2251411;61;1772;-88
2021/04/04 03:56:07;311096.00;1.04;536.99;0.00;0.00;0.62;;;;;12.50;1.00;;;;;;2252101;61;2022;-87
2021/04/04 03:58:36;409452.00;1.36;706.05;0.00;0.00;0.62;;;;;12.20;1.00;;;;;;2251928;61;1759;-88
2021/04/04 04:01:05;305993.00;1.02;528.22;0.00;0.00;0.62;;;;;12.20;1.00;;;;;;2251983;61;1758;-87
2021/04/04 04:03:34;377532.00;1.26;651.18;0.00;0.00;0.62;;;;;12.50;1.00;;;;;;2251426;61;1781;-88
2021/04/04 04:06:01;320717.00;1.07;553.53;0.00;0.00;0.62;;;;;12.60;1.00;;;;;;2251553;61;1121;-87
2021/04/04 04:08:31;391825.00;1.31;675.75;0.00;0.00;0.62;;;;;12.80;1.00;;;;;;2251700;61;1713;-87
2021/04/04 04:10:59;324711.00;1.08;560.40;0.00;0.00;0.62;;;;;12.80;1.00;;;;;;2251271;61;1768;-87
2021/04/04 04:13:28;539973.00;1.80;930.68;6765.00;0.02;12.34;;;;;12.00;1.00;;;;;;2251311;61;1590;-87
2021/04/04 04:15:56;430304.00;1.43;741.91;0.00;0.00;0.62;;;;;11.30;1.00;;;;;;2251325;61;2030;-87
2021/04/04 04:18:24;348367.00;1.16;601.05;0.00;0.00;0.62;;;;;10.30;1.00;;;;;;2251509;61;1753;-88
2021/04/04 04:20:51;193876.00;0.65;335.38;0.00;0.00;0.62;;;;;9.80;1.00;;;;;;2251490;61;1609;-87
2021/04/04 04:23:19;419183.00;1.40;722.79;0.00;0.00;0.62;;;;;9.40;1.00;;;;;;2251624;61;1365;-87
2021/04/04 04:25:47;709267.00;2.36;1223.31;0.00;0.00;0.62;;;;;9.40;1.00;;;;;;2251139;61;1717;-87
2021/04/04 04:28:15;214971.00;0.72;371.69;0.00;0.00;0.62;;;;;9.80;1.00;;;;;;2251101;61;1137;-87
2021/04/04 04:30:44;94454.00;0.31;164.00;0.00;0.00;0.62;;;;;10.10;1.00;;;;;;2251815;61;1113;-87
2021/04/04 04:33:16;276577.00;0.92;477.65;0.00;0.00;0.62;;;;;11.00;1.00;;;;;;2251464;61;1283;-87
2021/04/04 04:35:44;196742.00;0.66;340.32;0.00;0.00;0.62;;;;;11.80;1.00;;;;;;2251678;61;1991;-87
2021/04/04 04:38:12;219107.00;0.73;378.81;0.00;0.00;0.62;;;;;12.20;1.00;;;;;;2251851;61;1605;-87
2021/04/04 04:40:40;287094.00;0.96;495.73;0.00;0.00;0.62;;;;;12.20;1.00;;;;;;2251358;61;1114;-87
2021/04/04 04:43:11;463371.00;1.54;798.78;8075.00;0.03;14.61;;;;;11.80;1.00;;;;;;2251589;61;1732;-87
2021/04/04 04:45:40;246689.00;0.82;426.26;0.00;0.00;0.62;;;;;11.00;1.00;;;;;;2253310;61;1776;-87
2021/04/04 04:48:09;588653.00;1.96;1014.63;0.00;0.00;0.62;;;;;10.30;1.00;;;;;;2255938;61;1578;-87
2021/04/04 04:50:38;340142.00;1.13;586.92;0.00;0.00;0.62;;;;;10.20;1.00;;;;;;2256179;61;1575;-87
2021/04/04 04:53:05;396713.00;1.32;684.15;2903.00;0.01;5.65;;;;;10.00;1.00;;;;;;2252904;61;1718;-87
2021/04/04 04:55:33;415065.00;1.38;715.71;58349.00;0.19;101.62;;;;;9.40;1.00;;;;;;2251914;61;1947;-87
2021/04/04 04:58:00;272745.00;0.91;471.06;0.00;0.00;0.62;;;;;9.20;1.00;;;;;;2251875;61;1170;-86
2021/04/04 05:00:28;219699.00;0.73;379.83;0.00;0.00;0.62;;;;;9.60;1.00;;;;;;2251391;61;1642;-87
2021/04/04 05:02:55;393429.00;1.31;678.51;0.00;0.00;0.62;;;;;10.20;1.00;;;;;;2251507;61;1814;-87
2021/04/04 05:05:22;370170.00;1.23;638.53;0.00;0.00;0.62;;;;;10.70;1.00;;;;;;2251280;61;1743;-87
2021/04/04 05:07:52;328822.00;1.10;567.46;0.00;0.00;0.62;;;;;11.10;1.00;;;;;;2251043;61;1118;-87
2021/04/04 05:10:22;211367.00;0.70;365.49;0.00;0.00;0.62;;;;;11.10;1.00;;;;;;2251263;61;1579;-87
2021/04/04 05:12:53;446565.00;1.49;769.87;0.00;0.00;0.62;;;;;11.60;1.00;;;;;;2251373;61;1567;-88
2021/04/04 05:15:20;300272.00;1.00;518.39;0.00;0.00;0.62;;;;;11.80;1.00;;;;;;2251066;61;2003;-88
2021/04/04 05:17:48;347292.00;1.16;599.21;0.00;0.00;0.62;;;;;11.40;1.00;;;;;;2251379;61;1951;-87
2021/04/04 05:20:18;329910.00;1.10;569.33;0.00;0.00;0.62;;;;;11.50;1.00;;;;;;2250682;61;1744;-88
2021/04/04 05:22:45;297284.00;0.99;513.25;0.00;0.00;0.62;;;;;11.70;1.00;;;;;;2250460;61;1774;-87
2021/04/04 05:25:13;433735.00;1.45;747.81;0.00;0.00;0.62;;;;;11.80;1.00;;;;;;2250346;61;1586;-88
2021/04/04 05:27:40;252827.00;0.84;436.81;0.00;0.00;0.62;;;;;11.80;1.00;;;;;;2250756;61;1749;-87
2021/04/04 05:30:10;300006.00;1.00;517.93;0.00;0.00;0.62;;;;;11.70;1.00;;;;;;2250666;61;1108;-88
2021/04/04 05:32:43;173195.00;0.58;299.77;0.00;0.00;0.62;;;;;11.80;1.00;;;;;;2254011;61;1769;-88
2021/04/04 05:35:14;195201.00;0.65;337.66;0.00;0.00;0.62;;;;;12.00;1.00;;;;;;2254988;61;1932;-88
2021/04/04 05:37:43;168175.00;0.56;291.12;0.00;0.00;0.62;;;;;12.20;1.00;;;;;;2254404;61;1790;-87
2021/04/04 05:40:16;106216.00;0.35;184.30;0.00;0.00;0.62;;;;;12.60;1.00;;;;;;2252418;61;1705;-88
2021/04/04 05:42:51;90470.00;0.30;157.12;0.00;0.00;0.62;;;;;13.00;1.00;;;;;;2252095;61;1658;-88
2021/04/04 05:45:28;373337.00;1.24;643.97;0.00;0.00;0.62;;;;;13.30;1.00;;;;;;2252014;61;1056;-88
2021/04/04 05:48:05;177805.00;0.59;307.71;0.00;0.00;0.62;;;;;13.80;1.00;;;;;;2252186;61;1597;-87
2021/04/04 05:50:44;469596.00;1.57;809.49;18741.00;0.06;33.09;;;;;14.40;1.00;;;;;;2252118;61;1832;-88
2021/04/04 05:53:21;194938.00;0.65;337.21;0.00;0.00;0.62;;;;;14.50;1.00;;;;;;2251846;61;1756;-87
2021/04/04 05:55:58;240501.00;0.80;415.61;0.00;0.00;0.62;;;;;15.00;1.00;;;;;;2251016;61;1920;-88
2021/04/04 05:58:31;268245.00;0.89;463.33;0.00;0.00;0.62;;;;;15.20;1.00;;;;;;2250773;61;1133;-88
2021/04/04 06:01:02;39123.00;0.13;68.37;0.00;0.00;0.62;;;;;14.50;1.00;;;;;;2250575;61;1590;-88
2021/04/04 06:04:14;112890.00;0.38;195.82;0.00;0.00;0.62;;;;;14.70;1.00;;;;;;2251788;61;1577;-88
2021/04/04 06:07:19;177859.00;0.59;307.80;0.00;0.00;0.62;;;;;15.00;1.00;;;;;;2254750;61;1042;-88
2021/04/04 06:10:02;501553.00;1.67;864.50;93220.00;0.31;161.87;;;;;16.30;1.00;;;;;;2254683;61;1189;-88
2021/04/04 06:12:44;224107.00;0.75;387.41;77477.00;0.26;134.68;;;;;17.20;1.00;;;;;;2251046;61;1381;-88
2021/04/04 06:15:24;367790.00;1.23;634.44;83471.00;0.28;145.03;;;;;17.60;1.00;;;;;;2250600;61;1998;-88
2021/04/04 06:18:02;379197.00;1.26;654.05;78401.00;0.26;136.28;;;;;17.20;1.00;;;;;;2251903;61;1741;-88
2021/04/04 06:20:42;850769.00;2.84;1469.81;110897.00;0.37;192.38;;;;;16.10;1.00;;;;;;2251815;61;1146;-88
2021/04/04 06:23:21;503308.00;1.68;867.52;77644.00;0.26;134.97;;;;;16.70;1.00;;;;;;2251511;61;1596;-88
2021/04/04 06:25:59;677102.00;2.26;1167.55;94450.00;0.31;163.99;;;;;16.90;1.00;;;;;;2251101;61;1102;-88
2021/04/04 06:28:50;546230.00;1.82;941.46;91175.00;0.30;158.34;;;;;17.00;1.00;;;;;;2251349;61;1154;-88
2021/04/04 06:31:22;816085.00;2.72;1409.19;110818.00;0.37;192.24;;;;;17.10;1.00;;;;;;2251371;61;1046;-88
2021/04/04 06:33:59;599465.00;2.00;1033.30;75905.00;0.25;131.96;;;;;17.30;1.00;;;;;;2251024;61;1353;-88
2021/04/04 06:36:36;503469.00;1.68;867.80;0.00;0.00;0.62;;;;;17.90;1.00;;;;;;2250460;61;2008;-88
2021/04/04 06:39:23;364871.00;1.22;629.42;0.00;0.00;0.62;;;;;17.90;1.00;;;;;;2250020;61;1106;-88
2021/04/04 06:42:10;236361.00;0.79;408.49;0.00;0.00;0.62;;;;;18.50;1.00;;;;;;2251097;61;1171;-88
2021/04/04 06:44:54;282871.00;0.94;488.47;35998.00;0.12;62.96;;;;;17.90;1.00;;;;;;2256012;61;1209;-88
2021/04/04 06:47:28;132105.00;0.44;228.96;0.00;0.00;0.62;;;;;17.80;1.00;;;;;;2256319;61;1126;-88
2021/04/04 06:50:08;270076.00;0.90;466.47;0.00;0.00;0.62;;;;;17.40;1.00;;;;;;2246226;61;1114;-87
2021/04/04 06:52:44;282960.00;0.94;488.63;0.00;0.00;0.62;;;;;17.30;1.00;;;;;;2248321;61;1333;-88
2021/04/04 06:55:20;345577.00;1.15;596.26;0.00;0.00;0.62;;;;;17.20;1.00;;;;;;2244878;61;2001;-88
2021/04/04 06:58:02;318597.00;1.06;549.89;0.00;0.00;0.62;;;;;17.20;1.00;;;;;;2251903;61;1173;-88
2021/04/04 07:00:37;256200.00;0.85;442.61;0.00;0.00;0.62;;;;;17.50;1.00;;;;;;2251353;61;1057;-88
2021/04/04 07:03:08;439667.00;1.47;758.01;29711.00;0.10;52.08;;;;;17.90;1.00;;;;;;2241836;61;1408;-88
2021/04/04 07:05:40;562452.00;1.87;969.43;82068.00;0.27;142.61;;;;;17.70;1.00;;;;;;2242756;62;1125;-88
2021/04/04 07:08:39;635939.00;2.12;1096.32;85201.00;0.28;148.02;;;;;16.60;1.00;;;;;;2238896;62;1146;-88
2021/04/04 07:11:18;742432.00;2.47;1280.90;9054.00;0.03;16.31;;;;;16.00;1.00;;;;;;2239086;62;1668;-88
2021/04/04 07:14:23;704068.00;2.35;1214.29;22319.00;0.07;39.29;;;;;17.00;1.00;;;;;;2238728;62;1429;-88
2021/04/04 07:17:07;813611.00;2.71;1404.87;31466.00;0.10;55.12;;;;;17.00;1.00;;;;;;2238903;62;1939;-87
2021/04/04 07:20:09;598061.00;1.99;1030.87;7394.00;0.02;13.43;;;;;17.30;1.00;;;;;;2239088;62;1690;-87
2021/04/04 07:23:01;501277.00;1.67;864.02;32201.00;0.11;56.39;;;;;17.40;1.00;;;;;;2246771;61;1732;-87
2021/04/04 07:25:44;500287.00;1.67;862.32;60753.00;0.20;105.78;;;;;17.80;1.00;;;;;;2239472;61;1713;-88
2021/04/04 07:28:23;289574.00;0.97;500.00;0.00;0.00;0.62;;;;;18.30;1.00;;;;;;2250322;61;1137;-88
2021/04/04 07:30:55;165318.00;0.55;286.20;0.00;0.00;0.62;;;;;18.90;1.00;;;;;;2250761;61;1706;-87
2021/04/04 07:33:35;335618.00;1.12;579.14;0.00;0.00;0.62;;;;;19.50;1.00;;;;;;2251086;61;1724;-88
2021/04/04 07:36:10;1075289.00;3.58;1866.29;67648.00;0.23;117.70;;;;;20.40;1.00;;;;;;2251561;61;1948;-88
2021/04/04 07:38:45;738506.00;2.46;1274.08;58516.00;0.20;101.91;;;;;21.10;1.00;;;;;;2252410;61;1085;-88
2021/04/04 07:41:18;1111922.00;3.71;1931.76;73704.00;0.25;128.16;;;;;20.80;1.00;;;;;;2254941;61;1669;-87
2021/04/04 07:43:53;677106.00;2.26;1167.56;0.00;0.00;0.62;;;;;20.30;1.00;;;;;;2255914;61;1586;-87
2021/04/04 07:46:26;740280.00;2.47;1277.16;24424.00;0.08;42.93;;;;;19.60;1.00;;;;;;2255772;61;1804;-88
2021/04/04 07:49:09;640397.00;2.13;1104.03;0.00;0.00;0.62;;;;;20.00;1.00;;;;;;2255188;61;1613;-88
2021/04/04 07:51:40;1014799.00;3.38;1758.70;48616.00;0.16;84.79;;;;;20.30;1.00;;;;;;2255026;61;1202;-87
2021/04/04 07:54:10;853130.00;2.84;1473.95;1030.00;0.00;2.41;;;;;20.80;1.00;;;;;;2255288;61;1372;-88
2021/04/04 07:56:42;449439.00;1.50;774.82;0.00;0.00;0.62;;;;;20.50;1.00;;;;;;2254801;61;2009;-87
2021/04/04 07:59:17;636753.00;2.12;1097.72;78200.00;0.26;135.93;;;;;19.40;1.00;;;;;;2254685;61;1742;-87
2021/04/04 08:01:51;1166106.00;3.89;2029.06;76790.00;0.26;133.49;;;;;19.40;1.00;;;;;;2254470;61;1779;-87
2021/04/04 08:04:27;1053744.00;3.51;1827.90;20301.00;0.07;35.79;;;;;19.00;1.00;;;;;;2254418;61;1653;-88
2021/04/04 08:06:58;914729.00;3.05;1582.00;0.00;0.00;0.62;;;;;19.20;1.00;;;;;;2253256;61;1058;-87
2021/04/04 08:09:35;782247.00;2.61;1350.18;33866.00;0.11;59.27;;;;;20.00;1.00;;;;;;2251809;61;1120;-87
2021/04/04 08:12:14;507573.00;1.69;874.86;0.00;0.00;0.62;;;;;18.30;1.00;;;;;;2251735;61;1748;-87
2021/04/04 08:14:49;236998.00;0.79;409.59;0.00;0.00;0.62;;;;;17.90;1.00;;;;;;2251189;61;1608;-87
2021/04/04 08:17:17;125620320.00;418.73;80313752.00;0.00;0.00;0.62;;;;;18.50;1.00;;;;;;2251599;61;1951;-87
2021/04/04 08:19:56;261361.00;0.87;451.49;46215.00;0.15;80.64;;;;;19.20;1.00;;;;;;2251187;61;1118;-88
2021/04/04 08:22:27;119781.00;0.40;207.70;0.00;0.00;0.62;;;;;19.60;1.00;;;;;;2250490;61;1717;-88
2021/04/04 08:24:59;375907.00;1.25;648.39;0.00;0.00;0.62;;;;;18.80;1.00;;;;;;2251732;61;1780;-88
2021/04/04 08:27:32;579239.00;1.93;998.39;82325.00;0.27;143.05;;;;;18.70;1.00;;;;;;2251156;61;1176;-88
2021/04/04 08:30:05;156300.00;0.52;270.66;0.00;0.00;0.62;;;;;19.40;1.00;;;;;;2250117;61;1178;-88
2021/04/04 08:32:39;450800.00;1.50;777.16;80158.00;0.27;139.31;;;;;19.20;1.00;;;;;;2249513;61;1709;-88
2021/04/04 08:35:10;251992.00;0.84;435.38;0.00;0.00;0.62;;;;;19.40;1.00;;;;;;2249969;61;1404;-88
2021/04/04 08:37:41;308788.00;1.03;533.03;0.00;0.00;0.62;;;;;19.70;1.00;;;;;;2249495;61;2046;-88
2021/04/04 08:40:12;228066.00;0.76;394.22;0.00;0.00;0.62;;;;;19.70;1.00;;;;;;2250850;61;1581;-88
2021/04/04 08:42:42;444730.00;1.48;766.72;55131.00;0.18;96.06;;;;;18.40;1.00;;;;;;2250706;61;1544;-88
2021/04/04 08:45:13;294619.00;0.98;508.67;16102.00;0.05;28.52;;;;;17.70;1.00;;;;;;2250399;61;1183;-88
2021/04/04 08:47:45;444033.00;1.48;765.52;0.00;0.00;0.62;;;;;17.60;1.00;;;;;;2250320;61;1741;-87
2021/04/04 08:50:14;404758.00;1.35;697.98;0.00;0.00;0.62;;;;;17.00;1.00;;;;;;2250540;61;1085;-88
2021/04/04 08:52:49;346865.00;1.16;598.47;0.00;0.00;0.62;;;;;17.10;1.00;;;;;;2251398;61;1422;-87
2021/04/04 08:55:22;286917.00;0.96;495.43;0.00;0.00;0.62;;;;;16.30;1.00;;;;;;2255192;61;1707;-88
2021/04/04 08:57:51;505824.00;1.69;871.85;57515.00;0.19;100.18;;;;;16.10;1.00;;;;;;2255767;61;2101;-89
2021/04/04 09:00:20;349575.00;1.17;603.13;0.00;0.00;0.62;;;;;16.30;1.00;;;;;;2252606;61;1188;-87
2021/04/04 09:02:52;838614.00;2.80;1448.55;243530.00;0.81;420.82;;;;;15.60;1.00;;;;;;2253650;61;1396;-88
2021/04/04 09:05:25;336893.00;1.12;581.33;21555.00;0.07;37.96;;;;;15.30;1.00;;;;;;2256298;61;1701;-89
2021/04/04 09:07:56;206705.00;0.69;357.46;0.00;0.00;0.62;;;;;15.30;1.00;;;;;;2256091;61;1095;-90
2021/04/04 09:10:23;308712.00;1.03;532.90;35100.00;0.12;61.41;;;;;15.00;1.00;;;;;;2251436;61;1749;-89
2021/04/04 09:12:51;199780.00;0.67;345.54;0.00;0.00;0.62;;;;;15.10;1.00;;;;;;2251561;61;1612;-89
2021/04/04 09:15:20;118256352.00;394.19;66990068.00;0.00;0.00;0.62;;;;;14.60;1.00;;;;;;2251076;61;1200;-89
2021/04/04 09:17:51;699399.00;2.33;1206.20;82793.00;0.28;143.86;;;;;14.90;1.00;;;;;;2251145;61;2025;-87
2021/04/04 09:20:29;433341.00;1.44;747.13;0.00;0.00;0.62;;;;;14.20;1.00;;;;;;2251228;61;1447;-87
2021/04/04 09:22:58;197545.00;0.66;341.70;0.00;0.00;0.62;;;;;14.30;1.00;;;;;;2251309;61;1769;-87
2021/04/04 09:25:25;448324.00;1.49;772.90;0.00;0.00;0.62;;;;;14.80;1.00;;;;;;2250812;61;1624;-88
2021/04/04 09:27:57;403709.00;1.35;696.18;0.00;0.00;0.62;;;;;15.20;1.00;;;;;;2251069;61;1614;-89
2021/04/04 09:30:33;305436.00;1.02;527.26;38898.00;0.13;67.98;;;;;15.20;1.00;;;;;;2252231;61;1149;-89
2021/04/04 09:33:02;296085.00;0.99;511.19;0.00;0.00;0.62;;;;;15.00;1.00;;;;;;2253921;61;1321;-90
2021/04/04 09:35:30;192180.00;0.64;332.46;0.00;0.00;0.62;;;;;15.00;1.00;;;;;;2254169;61;1990;-89
2021/04/04 09:38:03;269251.00;0.90;465.06;0.00;0.00;0.62;;;;;15.00;1.00;;;;;;2254427;61;1025;-88
2021/04/04 09:40:31;322450.00;1.07;556.51;47444.00;0.16;82.77;;;;;14.90;1.00;;;;;;2254443;61;1086;-88
2021/04/04 09:43:07;241690.00;0.81;417.66;0.00;0.00;0.62;;;;;14.50;1.00;;;;;;2255139;61;1377;-86
2021/04/04 09:45:33;220790.00;0.74;381.70;0.00;0.00;0.62;;;;;13.80;1.00;;;;;;2252586;61;1728;-88
2021/04/04 09:48:19;213730.00;0.71;369.55;21744.00;0.07;38.29;;;;;13.60;1.00;;;;;;2253574;61;1169;-88
2021/04/04 09:50:47;245044.00;0.82;423.43;0.00;0.00;0.62;;;;;13.50;1.00;;;;;;2253189;61;1610;-89
2021/04/04 09:53:35;294069.00;0.98;507.72;0.00;0.00;0.62;;;;;13.30;1.00;;;;;;2252943;61;1284;-88
2021/04/04 09:56:05;226074.00;0.75;390.79;0.00;0.00;0.62;;;;;13.30;1.00;;;;;;2252202;61;1924;-89
2021/04/04 09:58:32;273007.00;0.91;471.51;0.00;0.00;0.62;;;;;13.60;1.00;;;;;;2254046;61;1598;-89
2021/04/04 10:01:01;393215.00;1.31;678.14;0.00;0.00;0.62;;;;;13.50;1.00;;;;;;2254065;61;1129;-89
2021/04/04 10:03:27;378480.00;1.26;652.81;0.00;0.00;0.62;;;;;13.20;1.00;;;;;;2253341;61;1218;-89
2021/04/04 10:05:54;434580.00;1.45;749.26;33307.00;0.11;58.31;;;;;13.00;1.00;;;;;;2253463;61;1136;-89
2021/04/04 10:08:22;116679496.00;388.93;64343556.00;0.00;0.00;0.62;;;;;13.00;1.00;;;;;;2253085;61;1586;-88
2021/04/04 10:10:51;277706.00;0.93;479.59;0.00;0.00;0.62;;;;;13.00;1.00;;;;;;2253020;61;1752;-88